Hlavní strana
METAR-TAF:

METAR-TAF

Letiště :

Mezinárodní letiště El-Aríš

Al-Ariš, Egypt

zeměpisná šířka: 31-05N, zeměpisná délka: 033-49E, výška: 31 m

Aktuální stav počasí

Zpráva byla vytvořena před 55 minutami, v 07:00 UTC
Severní vítr 3 kt
Teplota 21°C
Vlhkost vzduchu 53%
Tlak 1017 hPa
Viditelnost 10 km a více
Žádná oblačnost pod 1500 m, nevyskytují se cumulonimby.

METAR: HEAR 260700Z 35003KT CAVOK 21/11 Q1017 NOSIG

Čas: 09:55 (07:55 UTC)

Předpověď počasí

Zpráva byla vytvořena před 2 hodinami a 55 minutami, v 05:00 UTC
Předpověď platná od 26 v 06 UTC do 27 v 12 UTC
Západojihozápadní vítr 8 kt
Viditelnost 10 km a více
Polojasno ve výšce 2500 ft

TAF: HEAR 260500Z 2606/2712 24008KT 9999 SCT025

Stav a předpovědi počasí z více než 4 000 letišť (zprávy METAR a TAF).

Červené a žluté tečky na mapě představují dostupné meteorologické stanice.

Když kurzor umístíte na tečku, zobrazí se název stanice.

Pak kliknutím zobrazíte stav a předpověď počasí.

Chcete-li změnit mapu, kliknutím na zelené tlačítko se znaménkem +mapu přiblížíte, kliknutím na zelené tlačítko se znaménkem – mapu oddálíte a kliknutím na zelené šipky přejdete na sousední mapy.


METAR-TAF: